Time;durP1;ratioP1;P1;durP2;ratioP2;P2;SDS_P1;SDS_P2;PMS_P1;PMS_P2;Temp;Humidity;BMP_temperature;BMP_pressure;BME280_temperature;BME280_humidity;BME280_pressure;Samples;Min_cycle;Max_cycle;Signal;HPM_P1;HPM_P2
2022/01/20 00:01:21;;;;;;;1.70;1.60;;;;;;;3.08;100.00;98406.03;10449226;28;20059;-58
2022/01/20 00:27:54;;;;;;;2.45;2.25;;;;;;;2.82;100.00;98426.59;10482952;28;20524;-58
2022/01/20 00:33:13;;;;;;;2.50;2.30;;;;;;;2.81;100.00;98435.53;10484176;28;20098;-59
2022/01/20 00:38:17;;;;;;;4.30;2.50;;;;;;;2.85;100.00;98431.66;10479935;28;20049;-57
2022/01/20 00:43:20;;;;;;;2.97;2.67;;;;;;;2.85;100.00;98431.66;10489796;28;20040;-58
2022/01/20 00:48:25;;;;;;;2.90;2.40;;;;;;;2.82;100.00;98425.72;10482466;28;20044;-58
2022/01/20 00:53:28;;;;;;;3.50;2.70;;;;;;;2.87;100.00;98419.09;10484715;28;20493;-57
2022/01/20 00:58:31;;;;;;;3.58;2.60;;;;;;;2.96;100.00;98416.72;10483852;28;20119;-57
2022/01/20 01:03:36;;;;;;;3.53;2.30;;;;;;;2.94;100.00;98462.09;10479849;28;20078;-58
2022/01/20 01:08:40;;;;;;;3.83;2.72;;;;;;;2.96;100.00;98396.28;10481658;28;20572;-57
2022/01/20 01:13:44;;;;;;;4.80;2.65;;;;;;;3.02;100.00;98426.94;10486265;28;20513;-57
2022/01/20 01:24:09;;;;;;;5.15;2.58;;;;;;;2.89;100.00;98483.72;10478812;28;20793;-54
2022/01/20 01:29:29;;;;;;;7.13;2.80;;;;;;;2.82;100.00;98468.31;10460352;28;20052;-58
2022/01/20 01:34:36;;;;;;;7.32;2.75;;;;;;;2.75;100.00;98450.13;10474257;28;20056;-58
2022/01/20 01:39:39;;;;;;;8.02;2.67;;;;;;;2.69;100.00;98453.22;10459707;28;20159;-58
2022/01/20 01:45:07;;;;;;;8.10;2.80;;;;;;;2.68;100.00;98458.66;10478749;28;20416;-59
2022/01/20 01:50:12;;;;;;;10.38;2.80;;;;;;;2.63;100.00;98464.31;10465524;28;20087;-59
2022/01/20 01:55:16;;;;;;;8.38;2.47;;;;;;;2.56;100.00;98466.56;10472056;28;20114;-55
2022/01/20 02:00:20;;;;;;;7.65;2.40;;;;;;;2.50;100.00;98469.66;10453230;28;20094;-58
2022/01/20 02:05:36;;;;;;;11.25;2.88;;;;;;;2.35;100.00;98471.59;10460526;28;20044;-57
2022/01/20 02:21:28;;;;;;;11.33;2.30;;;;;;;2.06;100.00;98455.84;10462424;28;20074;-59
2022/01/20 02:26:34;;;;;;;8.60;2.03;;;;;;;2.00;100.00;98456.28;10470754;28;20524;-59
2022/01/20 02:31:39;;;;;;;16.02;2.53;;;;;;;1.97;100.00;98460.03;10472826;28;20081;-59
2022/01/20 02:36:46;;;;;;;14.27;2.70;;;;;;;1.88;100.00;98446.50;10476223;28;20037;-58
2022/01/20 02:47:10;;;;;;;14.43;2.57;;;;;;;1.76;100.00;98446.41;10482747;28;20045;-55
2022/01/20 02:52:15;;;;;;;12.63;2.50;;;;;;;1.69;100.00;98453.94;10481186;28;20052;-55
2022/01/20 02:57:19;;;;;;;14.13;2.63;;;;;;;1.63;100.00;98435.78;10476169;28;20123;-55
2022/01/20 03:02:22;;;;;;;11.32;2.40;;;;;;;1.56;100.00;98442.44;10475531;28;20094;-55
2022/01/20 03:07:28;;;;;;;13.43;2.20;;;;;;;1.67;100.00;98423.13;10468336;28;20076;-55
2022/01/20 03:12:31;;;;;;;16.55;2.90;;;;;;;1.77;100.00;98432.16;10463831;28;20053;-56
2022/01/20 03:17:36;;;;;;;15.75;2.53;;;;;;;1.76;100.00;98416.34;10472928;28;20177;-58
2022/01/20 03:22:41;;;;;;;14.55;2.38;;;;;;;1.77;100.00;98416.22;10478242;28;20102;-56
2022/01/20 03:27:44;;;;;;;15.20;2.75;;;;;;;1.89;100.00;98411.00;10461875;28;20618;-57
2022/01/20 03:32:49;;;;;;;14.82;2.65;;;;;;;1.91;100.00;98401.97;10476763;28;20071;-59
2022/01/20 03:37:53;;;;;;;11.57;2.20;;;;;;;2.01;100.00;98420.78;10469489;28;20041;-58
2022/01/20 03:42:56;;;;;;;16.33;2.72;;;;;;;2.02;100.00;98393.25;10476892;28;20048;-59
2022/01/20 03:48:07;;;;;;;15.10;2.70;;;;;;;2.03;100.00;98379.03;10476633;28;20052;-58
2022/01/20 03:53:12;;;;;;;15.80;2.85;;;;;;;2.00;100.00;98373.91;10474887;28;20053;-57
2022/01/20 03:58:17;;;;;;;14.48;2.60;;;;;;;1.99;100.00;98372.22;10475558;28;20036;-58
2022/01/20 04:03:22;;;;;;;13.68;2.63;;;;;;;1.96;100.00;98367.09;10473994;28;20041;-58
2022/01/20 04:08:48;;;;;;;16.90;2.95;;;;;;;1.92;100.00;98363.00;10471108;28;20045;-58
2022/01/20 04:13:53;;;;;;;15.25;2.55;;;;;;;1.93;100.00;98359.38;10476371;28;20052;-58
2022/01/20 04:19:09;;;;;;;13.65;2.63;;;;;;;1.88;100.00;98346.44;10489540;22;20040;-56
2022/01/20 04:24:15;;;;;;;16.83;2.65;;;;;;;1.84;100.00;98329.81;10510559;28;20049;-56
2022/01/20 04:29:19;;;;;;;20.48;2.83;;;;;;;1.79;100.00;98321.34;10498338;28;20044;-54
2022/01/20 04:34:22;;;;;;;14.75;2.78;;;;;;;1.76;100.00;98326.03;10500847;28;20052;-53
2022/01/20 04:39:32;;;;;;;16.95;3.03;;;;;;;1.67;100.00;98316.91;10518373;28;20623;-57
2022/01/20 04:44:42;;;;;;;13.88;2.38;;;;;;;1.59;100.00;98316.59;10494013;28;20044;-54
2022/01/20 05:00:30;;;;;;;15.60;2.63;;;;;;;1.54;100.00;98323.06;10506448;28;20078;-58
2022/01/20 05:06:03;;;;;;;21.13;3.15;;;;;;;1.73;100.00;98316.44;10454294;28;20063;-56
2022/01/20 05:11:09;;;;;;;11.18;2.65;;;;;;;1.76;100.00;98305.63;10499051;28;20044;-56
2022/01/20 05:16:13;;;;;;;17.20;3.10;;;;;;;1.75;100.00;98298.59;10511540;28;20055;-56
2022/01/20 05:21:21;;;;;;;17.00;2.95;;;;;;;1.70;100.00;98311.38;10498952;28;20064;-56
2022/01/20 05:26:26;;;;;;;20.70;3.30;;;;;;;1.80;100.00;98307.13;10499274;28;20051;-57
2022/01/20 05:31:30;;;;;;;14.65;2.60;;;;;;;1.82;100.00;98302.50;10498926;28;20050;-57
2022/01/20 05:36:34;;;;;;;14.35;2.60;;;;;;;1.77;100.00;98298.50;10498496;28;20048;-54
2022/01/20 05:41:38;;;;;;;15.43;2.60;;;;;;;1.71;100.00;98290.97;10500805;28;20062;-53
2022/01/20 05:46:53;;;;;;;15.05;3.08;;;;;;;1.75;100.00;98290.63;10496402;28;20139;-54
2022/01/20 05:52:29;;;;;;;14.38;2.90;;;;;;;1.77;100.00;98298.50;10475705;28;20415;-57
2022/01/20 05:57:34;;;;;;;15.00;2.70;;;;;;;1.87;100.00;98304.00;10500799;28;20462;-54
2022/01/20 06:03:36;;;;;;;11.68;2.10;;;;;;;2.00;100.00;98302.19;10496952;28;20465;-52
2022/01/20 06:08:01;;;;;;;8.95;2.10;;;;;;;2.23;100.00;98334.22;10494609;28;20468;-57
2022/01/20 06:13:06;;;;;;;9.63;1.77;;;;;;;2.14;100.00;98312.66;10516549;28;20059;-55
2022/01/20 06:18:11;;;;;;;11.45;1.95;;;;;;;2.19;100.00;98348.69;10508502;28;20391;-53
2022/01/20 06:23:20;;;;;;;7.63;2.03;;;;;;;2.18;100.00;98307.09;10499158;28;20105;-53
2022/01/20 06:28:26;;;;;;;7.22;1.60;;;;;;;2.15;100.00;98305.53;10498822;28;20055;-57
2022/01/20 06:33:30;;;;;;;7.05;1.58;;;;;;;2.20;100.00;98282.13;10491149;28;20044;-59
2022/01/20 06:38:34;;;;;;;7.65;1.50;;;;;;;2.22;100.00;98305.94;10492171;28;20052;-54
2022/01/20 06:43:39;;;;;;;4.82;1.40;;;;;;;2.24;100.00;98320.81;10494144;28;20474;-53
2022/01/20 06:48:43;;;;;;;6.32;1.50;;;;;;;2.17;100.00;98319.56;10495238;28;20531;-56
2022/01/20 06:54:03;;;;;;;4.45;1.05;;;;;;;2.18;100.00;98320.41;10493880;28;20708;-62
2022/01/20 06:59:08;;;;;;;3.83;1.25;;;;;;;2.11;100.00;98349.25;10487479;28;20782;-58
2022/01/20 07:04:14;;;;;;;4.25;1.17;;;;;;;1.94;100.00;98355.78;10498080;28;20068;-53
2022/01/20 07:09:18;;;;;;;6.93;1.50;;;;;;;1.68;100.00;98392.97;10498271;28;20071;-57
2022/01/20 07:14:25;;;;;;;5.45;1.50;;;;;;;1.43;100.00;98410.56;10494850;28;20052;-55
2022/01/20 07:19:28;;;;;;;4.07;1.10;;;;;;;1.21;100.00;98454.47;10494601;28;20079;-55
2022/01/20 07:24:32;;;;;;;3.50;0.90;;;;;;;1.03;100.00;98458.31;10493293;28;20131;-57
2022/01/20 07:29:47;;;;;;;2.95;1.00;;;;;;;0.89;100.00;98491.06;10502629;28;20122;-54
2022/01/20 07:34:53;;;;;;;6.47;1.20;;;;;;;0.81;100.00;98475.63;10499638;28;20055;-58
2022/01/20 07:39:57;;;;;;;4.50;1.30;;;;;;;0.75;100.00;98489.28;10495049;28;20047;-51
2022/01/20 07:45:04;;;;;;;3.95;1.30;;;;;;;0.65;100.00;98520.00;10492591;28;20094;-52
2022/01/20 07:50:30;;;;;;;2.80;1.20;;;;;;;0.56;100.00;98537.31;10494606;28;20105;-53
2022/01/20 07:55:34;;;;;;;6.72;1.80;;;;;;;0.24;100.00;98543.66;10517491;28;20048;-61
2022/01/20 08:00:41;;;;;;;9.52;1.65;;;;;;;0.14;100.00;98555.75;10499667;28;20111;-62
2022/01/20 08:05:45;;;;;;;9.73;1.70;;;;;;;0.19;100.00;98535.09;10500241;28;20408;-56
2022/01/20 08:10:49;;;;;;;8.60;1.63;;;;;;;0.29;100.00;98546.84;10488881;28;20499;-51
2022/01/20 08:15:55;;;;;;;12.32;1.88;;;;;;;0.37;100.00;98559.63;10503966;28;20071;-52
2022/01/20 08:21:02;;;;;;;8.55;1.42;;;;;;;0.42;100.00;98581.44;10487048;28;20133;-58
2022/01/20 08:26:06;;;;;;;8.30;1.50;;;;;;;0.48;100.00;98588.16;10497851;28;20443;-55
2022/01/20 08:31:12;;;;;;;7.70;1.70;;;;;;;0.52;100.00;98578.22;10499035;28;20048;-56
2022/01/20 08:36:16;;;;;;;10.18;1.92;;;;;;;0.53;100.00;98586.06;10503500;28;20508;-56
2022/01/20 08:41:27;;;;;;;6.77;1.40;;;;;;;0.57;100.00;98578.78;10500482;28;20056;-52
2022/01/20 08:46:32;;;;;;;7.57;1.40;;;;;;;0.61;100.00;98589.13;10504385;28;20059;-55
2022/01/20 08:51:35;;;;;;;5.63;1.50;;;;;;;0.59;100.00;98596.31;10500220;28;20048;-52
2022/01/20 08:56:58;;;;;;;10.35;1.83;;;;;;;0.66;100.00;98622.44;10519447;28;20059;-52
2022/01/20 09:02:03;;;;;;;6.82;1.45;;;;;;;0.67;100.00;98635.63;10496345;28;20051;-53
2022/01/20 09:07:07;;;;;;;8.18;1.70;;;;;;;0.69;100.00;98636.38;10496294;28;20048;-61
2022/01/20 09:15:27;;;;;;;6.13;1.42;;;;;;;0.73;100.00;98637.03;10496327;28;20484;-52
2022/01/20 09:17:43;;;;;;;13.70;2.17;;;;;;;0.64;100.00;98634.97;10496012;28;20147;-53
2022/01/20 09:22:48;;;;;;;6.03;1.33;;;;;;;0.56;100.00;98644.19;10500778;28;20143;-61
2022/01/20 09:27:52;;;;;;;6.82;1.55;;;;;;;0.44;100.00;98650.25;10501872;28;20148;-53
2022/01/20 09:33:09;;;;;;;5.20;1.08;;;;;;;0.42;100.00;98657.44;10500820;28;20040;-52
2022/01/20 09:38:13;;;;;;;7.88;1.40;;;;;;;0.39;100.00;98660.28;10489189;28;20057;-52
2022/01/20 09:43:16;;;;;;;10.50;1.92;;;;;;;0.23;100.00;98677.06;10516778;28;20119;-52
2022/01/20 09:48:21;;;;;;;8.65;1.70;;;;;;;0.29;100.00;98702.38;10491150;28;20050;-52
2022/01/20 09:53:43;;;;;;;8.30;1.58;;;;;;;0.35;100.00;98709.09;10494768;28;20362;-52
2022/01/20 09:59:05;;;;;;;7.10;1.58;;;;;;;0.37;100.00;98701.91;10519260;28;20056;-52
2022/01/20 10:04:21;;;;;;;10.07;1.70;;;;;;;0.47;100.00;98686.34;10505220;28;20421;-52
2022/01/20 10:09:33;;;;;;;10.02;2.03;;;;;;;0.59;100.00;98681.16;10527257;28;20040;-62
2022/01/20 10:14:52;;;;;;;8.20;1.58;;;;;;;0.75;100.00;98680.22;10523050;28;20096;-63
2022/01/20 12:42:12;;;;;;;10.77;2.10;;;;;;;-0.04;100.00;98650.41;10388351;28;20057;-88
2022/01/20 13:06:21;;;;;;;12.13;1.92;;;;;;;0.28;100.00;98613.22;10370743;28;20051;-84
2022/01/20 13:18:38;;;;;;;10.65;2.03;;;;;;;0.48;100.00;98625.28;10404996;28;20147;-87
2022/01/20 13:23:59;;;;;;;10.80;1.98;;;;;;;0.05;100.00;98665.75;10435251;28;20451;-88
2022/01/20 13:29:27;;;;;;;14.80;2.67;;;;;;;-0.53;100.00;98685.81;10404695;28;20030;-88
2022/01/20 13:35:13;;;;;;;13.68;2.30;;;;;;;-0.51;100.00;98650.38;10417566;28;20104;-88
2022/01/20 13:40:56;;;;;;;9.45;1.60;;;;;;;-0.34;100.00;98665.31;10301713;28;20467;-87
2022/01/20 14:14:11;;;;;;;13.00;2.10;;;;;;;0.20;100.00;98681.72;10352743;22;20427;-57
2022/01/20 14:19:21;;;;;;;12.55;2.13;;;;;;;0.22;100.00;98685.97;10516667;28;20457;-54
2022/01/20 14:24:24;;;;;;;9.77;1.63;;;;;;;-0.02;100.00;98702.34;10495487;28;20044;-57
2022/01/20 14:29:29;;;;;;;7.97;1.48;;;;;;;-0.06;100.00;98695.50;10496676;28;20048;-53
2022/01/20 14:34:33;;;;;;;7.07;1.45;;;;;;;-0.20;100.00;98693.63;10518724;28;20054;-55
2022/01/20 14:39:37;;;;;;;7.90;1.63;;;;;;;-0.41;100.00;98700.97;10518425;28;20040;-55
2022/01/20 14:44:43;;;;;;;8.05;1.73;;;;;;;-0.37;100.00;98702.53;10520387;28;20043;-56
2022/01/20 14:49:49;;;;;;;8.80;1.65;;;;;;;-0.33;100.00;98693.47;10526782;28;20033;-59
2022/01/20 14:54:53;;;;;;;9.23;2.00;;;;;;;-0.21;100.00;98699.03;10522838;28;20044;-54
2022/01/20 14:59:58;;;;;;;7.72;2.00;;;;;;;-0.22;100.00;98676.13;10525259;28;20040;-57
2022/01/20 15:05:01;;;;;;;6.20;1.52;;;;;;;-0.27;100.00;98667.59;10525918;28;20131;-60
2022/01/20 15:10:07;;;;;;;8.02;1.70;;;;;;;-0.33;100.00;98693.47;10518743;28;20040;-58
2022/01/20 15:15:12;;;;;;;12.32;1.90;;;;;;;-0.34;100.00;98702.38;10523977;28;20052;-54
2022/01/20 15:20:15;;;;;;;12.25;1.90;;;;;;;-0.31;100.00;98690.75;10526066;28;20043;-57
2022/01/20 15:25:19;;;;;;;7.63;1.73;;;;;;;-0.27;100.00;98686.13;10521323;28;20036;-56
2022/01/20 15:30:24;;;;;;;8.00;1.67;;;;;;;-0.40;100.00;98707.97;10519780;28;20040;-55
2022/01/20 15:35:27;;;;;;;6.60;1.35;;;;;;;-0.44;100.00;98695.00;10523605;28;20062;-58
2022/01/20 15:40:33;;;;;;;4.85;1.20;;;;;;;-0.54;100.00;98710.56;10518801;28;20059;-58
2022/01/20 15:45:38;;;;;;;4.25;1.20;;;;;;;-0.82;100.00;98710.22;10501126;28;20415;-57
2022/01/20 15:50:42;;;;;;;7.40;1.60;;;;;;;-0.82;100.00;98698.81;10524951;28;20040;-56
2022/01/20 15:55:46;;;;;;;11.27;1.80;;;;;;;-0.82;100.00;98710.22;10518523;28;20124;-53
2022/01/20 16:00:51;;;;;;;6.70;1.80;;;;;;;-0.76;100.00;98706.41;10499476;28;20650;-55
2022/01/20 16:05:54;;;;;;;9.73;1.70;;;;;;;-0.66;100.00;98693.53;10505926;28;20071;-57
2022/01/20 16:10:57;;;;;;;9.38;2.00;;;;;;;-0.60;100.00;98684.41;10521062;28;20087;-53
2022/01/20 16:16:03;;;;;;;9.05;1.77;;;;;;;-0.50;100.00;98670.59;10518858;28;20141;-60
2022/01/20 16:21:09;;;;;;;7.00;1.50;;;;;;;-0.38;100.00;98695.53;10509396;28;20047;-58
2022/01/20 16:26:13;;;;;;;8.25;1.70;;;;;;;-0.25;100.00;98685.13;10512047;28;20071;-55
2022/01/20 16:31:17;;;;;;;6.38;1.50;;;;;;;-0.22;100.00;98678.78;10509766;28;20517;-56
2022/01/20 16:36:21;;;;;;;6.10;1.60;;;;;;;-0.21;100.00;98691.09;10523910;28;20044;-58
2022/01/20 16:41:27;;;;;;;4.88;1.48;;;;;;;-0.21;100.00;98730.81;10520204;28;20046;-58
2022/01/20 16:46:33;;;;;;;5.15;1.30;;;;;;;-0.21;100.00;98717.56;10516153;28;20050;-58
2022/01/20 16:51:37;;;;;;;8.95;1.73;;;;;;;-0.27;100.00;98702.88;10517328;28;20105;-56
2022/01/20 16:56:40;;;;;;;6.53;1.42;;;;;;;-0.31;100.00;98722.50;10517946;28;20044;-53
2022/01/20 17:01:46;;;;;;;8.77;1.60;;;;;;;-0.38;100.00;98715.84;10500882;28;20052;-57
2022/01/20 17:06:50;;;;;;;4.05;1.48;;;;;;;-0.48;100.00;98712.84;10498541;28;20451;-59
2022/01/20 17:11:54;;;;;;;4.00;0.93;;;;;;;-0.75;100.00;98720.50;10498642;28;20044;-53
2022/01/20 17:17:03;;;;;;;8.38;1.33;;;;;;;-0.91;100.00;98717.84;10512327;28;20028;-59
2022/01/20 17:22:10;;;;;;;4.25;1.23;;;;;;;-1.10;100.00;98724.94;10546086;28;20028;-61
2022/01/20 17:27:15;;;;;;;2.55;0.98;;;;;;;-1.15;100.00;98726.13;10546510;28;20036;-60
2022/01/20 17:32:20;;;;;;;3.95;1.00;;;;;;;-1.13;100.00;98724.25;10508833;28;20507;-57
2022/01/20 17:37:25;;;;;;;3.13;0.98;;;;;;;-1.05;100.00;98705.31;10494303;28;20135;-60
2022/01/20 17:42:28;;;;;;;4.60;0.90;;;;;;;-0.98;100.00;98707.56;10516583;28;20044;-60
2022/01/20 17:47:34;;;;;;;2.00;0.98;;;;;;;-0.89;100.00;98715.97;10517393;28;20412;-54
2022/01/20 17:52:40;;;;;;;3.50;1.20;;;;;;;-0.93;100.00;98737.28;10494254;28;20040;-57
2022/01/20 17:57:45;;;;;;;3.70;0.90;;;;;;;-0.98;100.00;98738.47;10514989;28;20067;-56
2022/01/20 18:02:55;;;;;;;3.42;0.88;;;;;;;-0.99;100.00;98753.44;10516164;28;20055;-58
2022/01/20 18:07:58;;;;;;;3.28;0.80;;;;;;;-1.04;100.00;98770.50;10511207;28;20044;-58
2022/01/20 18:13:02;;;;;;;2.88;0.90;;;;;;;-1.03;100.00;98786.31;10515149;28;20052;-56
2022/01/20 18:18:07;;;;;;;3.47;1.00;;;;;;;-1.04;100.00;98773.13;10510295;28;20489;-58
2022/01/20 18:23:31;;;;;;;3.83;1.00;;;;;;;-1.02;100.00;98790.66;10518879;28;20044;-58
2022/01/20 18:28:38;;;;;;;4.90;1.10;;;;;;;-0.98;100.00;98792.19;10503500;28;20302;-57
2022/01/20 18:33:43;;;;;;;3.33;1.02;;;;;;;-0.96;100.00;98784.19;10512377;28;20040;-57
2022/01/20 18:38:47;;;;;;;5.63;1.00;;;;;;;-0.92;100.00;98796.31;10496581;28;20050;-58
2022/01/20 18:43:50;;;;;;;3.75;1.08;;;;;;;-0.84;100.00;98777.41;10482722;28;20484;-57
2022/01/20 18:48:54;;;;;;;4.95;0.95;;;;;;;-0.75;100.00;98784.84;10510213;28;20051;-60
2022/01/20 18:53:58;;;;;;;4.05;1.10;;;;;;;-0.73;100.00;98782.97;10510636;28;20036;-58
2022/01/20 18:59:01;;;;;;;7.82;1.67;;;;;;;-0.77;100.00;98802.63;10512697;28;20040;-55
2022/01/20 19:04:06;;;;;;;9.15;2.83;;;;;;;-0.81;100.00;98824.88;10479137;23;20106;-59
2022/01/20 19:09:09;;;;;;;4.90;1.40;;;;;;;-0.81;100.00;98836.28;10490324;28;20049;-58
2022/01/20 19:14:13;;;;;;;3.30;1.10;;;;;;;-0.81;100.00;98833.63;10489178;28;20562;-58
2022/01/20 19:19:17;;;;;;;4.70;1.38;;;;;;;-0.83;100.00;98866.41;10489717;28;20040;-61
2022/01/20 19:24:20;;;;;;;5.03;1.25;;;;;;;-0.80;100.00;98858.31;10483962;28;20054;-59
2022/01/20 19:29:23;;;;;;;6.03;1.40;;;;;;;-0.83;100.00;98864.63;10487397;28;20044;-63
2022/01/20 19:34:28;;;;;;;7.25;1.50;;;;;;;-0.99;100.00;98877.75;10486878;28;20309;-57
2022/01/20 19:39:31;;;;;;;7.88;1.67;;;;;;;-1.02;100.00;98880.56;10489272;28;20044;-62
2022/01/20 19:44:36;;;;;;;5.68;1.50;;;;;;;-1.01;100.00;98890.22;10483733;28;20044;-58
2022/01/20 19:49:40;;;;;;;7.22;1.90;;;;;;;-0.99;100.00;98896.28;10483327;28;20050;-59
2022/01/20 19:54:43;;;;;;;5.63;1.40;;;;;;;-0.95;100.00;98899.63;10485842;28;20412;-57
2022/01/20 19:59:46;;;;;;;6.97;1.40;;;;;;;-0.95;100.00;98892.53;10485854;28;20032;-58
2022/01/20 20:04:51;;;;;;;7.72;1.42;;;;;;;-0.90;100.00;98904.69;10486179;28;20041;-60
2022/01/20 20:09:54;;;;;;;7.45;1.45;;;;;;;-0.87;100.00;98905.38;10483637;28;20411;-59
2022/01/20 20:14:58;;;;;;;8.02;1.58;;;;;;;-0.76;100.00;98918.06;10482832;28;20028;-56
2022/01/20 20:20:03;;;;;;;6.38;1.45;;;;;;;-0.74;100.00;98921.50;10473146;28;20086;-59
2022/01/20 20:25:06;;;;;;;8.73;1.77;;;;;;;-0.70;100.00;98936.28;10482641;28;20147;-58
2022/01/20 20:30:11;;;;;;;7.88;1.90;;;;;;;-0.61;100.00;98945.56;10481115;28;20044;-59
2022/01/20 20:35:17;;;;;;;7.85;1.70;;;;;;;-0.59;100.00;98956.06;10493996;28;20454;-59
2022/01/20 20:40:21;;;;;;;8.10;1.80;;;;;;;-0.56;100.00;98958.56;10492150;28;20124;-59
2022/01/20 20:45:24;;;;;;;8.23;1.70;;;;;;;-0.60;100.00;98946.41;10482390;28;20479;-58
2022/01/20 20:50:30;;;;;;;7.80;1.60;;;;;;;-0.60;100.00;98954.34;10480637;28;20135;-56
2022/01/20 20:55:35;;;;;;;10.18;1.58;;;;;;;-0.59;100.00;98972.81;10481846;28;20039;-59
2022/01/20 21:00:42;;;;;;;8.48;1.58;;;;;;;-0.62;100.00;98984.38;10484019;28;20053;-56
2022/01/20 21:05:48;;;;;;;7.20;1.50;;;;;;;-0.67;100.00;98999.66;10480635;28;20135;-57
2022/01/20 21:10:55;;;;;;;6.93;1.50;;;;;;;-0.69;100.00;99004.16;10481861;28;20138;-57
2022/01/20 21:15:59;;;;;;;7.40;1.40;;;;;;;-0.75;100.00;98999.16;10489275;28;20047;-56
2022/01/20 21:21:06;;;;;;;7.63;1.33;;;;;;;-0.79;100.00;99013.47;10477861;28;20078;-55
2022/01/20 21:26:10;;;;;;;6.55;1.83;;;;;;;-0.90;100.00;99007.84;10483840;28;20048;-54
2022/01/20 21:31:15;;;;;;;11.85;5.00;;;;;;;-0.91;100.00;99028.16;10479729;28;20041;-56
2022/01/20 21:36:23;;;;;;;11.43;1.88;;;;;;;-0.97;100.00;99031.94;10482350;28;20451;-54
2022/01/20 21:41:29;;;;;;;8.88;1.45;;;;;;;-1.00;100.00;99063.81;10479895;28;20032;-55
2022/01/20 21:46:32;;;;;;;5.18;1.33;;;;;;;-1.01;100.00;99064.78;10479131;28;20040;-56
2022/01/20 21:51:37;;;;;;;8.48;1.42;;;;;;;-1.01;100.00;99051.56;10483920;28;20041;-60
2022/01/20 21:56:41;;;;;;;7.82;1.50;;;;;;;-1.05;100.00;99055.25;10480764;28;20048;-56
2022/01/20 22:01:44;;;;;;;5.20;1.40;;;;;;;-1.11;100.00;99074.91;10475108;28;20155;-56
2022/01/20 22:06:49;;;;;;;5.70;1.40;;;;;;;-1.12;100.00;99081.13;10488215;28;20040;-57
2022/01/20 22:11:53;;;;;;;8.20;1.30;;;;;;;-1.15;100.00;99083.06;10489137;28;20561;-55
2022/01/20 22:16:59;;;;;;;5.68;1.50;;;;;;;-1.11;100.00;99087.25;10478803;28;20058;-58
2022/01/20 22:22:05;;;;;;;5.57;1.60;;;;;;;-1.18;100.00;99083.19;10477912;28;20515;-52
2022/01/20 22:27:09;;;;;;;6.93;1.42;;;;;;;-1.29;100.00;99079.28;10474594;28;20774;-54
2022/01/20 22:32:16;;;;;;;9.80;1.48;;;;;;;-1.33;100.00;99082.97;10475604;28;20058;-57
2022/01/20 22:37:21;;;;;;;6.95;1.70;;;;;;;-1.40;100.00;99089.47;10475536;28;20102;-58
2022/01/20 22:42:25;;;;;;;9.63;1.55;;;;;;;-1.48;100.00;99099.53;10478790;28;20040;-56
2022/01/20 22:47:29;;;;;;;4.13;1.30;;;;;;;-1.54;100.00;99111.25;10475834;28;20462;-60
2022/01/20 22:52:34;;;;;;;5.60;1.30;;;;;;;-1.61;100.00;99113.28;10477540;28;20066;-58
2022/01/20 22:57:37;;;;;;;7.40;1.50;;;;;;;-1.63;100.00;99123.06;10466238;28;20052;-54
2022/01/20 23:02:40;;;;;;;7.10;1.50;;;;;;;-1.63;100.00;99131.00;10490279;28;20500;-56
2022/01/20 23:07:46;;;;;;;6.07;1.30;;;;;;;-1.64;100.00;99147.78;10486214;28;20056;-56
2022/01/20 23:12:51;;;;;;;8.55;1.38;;;;;;;-1.60;100.00;99149.38;10487152;28;20496;-55
2022/01/20 23:18:04;;;;;;;5.78;1.33;;;;;;;-1.68;100.00;99154.09;10487005;28;20122;-52
2022/01/20 23:23:09;;;;;;;5.03;1.10;;;;;;;-1.69;100.00;99160.31;10484087;28;20146;-54
2022/01/20 23:28:13;;;;;;;6.57;1.45;;;;;;;-1.79;100.00;99161.63;10485292;28;20041;-58
2022/01/20 23:33:17;;;;;;;8.07;1.45;;;;;;;-1.89;100.00;99169.94;10497241;28;20663;-58
2022/01/20 23:38:22;;;;;;;7.20;1.40;;;;;;;-1.96;100.00;99179.06;10500975;28;20055;-55
2022/01/20 23:43:34;;;;;;;7.60;1.52;;;;;;;-2.01;100.00;99194.22;10499184;28;20044;-54
2022/01/20 23:48:37;;;;;;;7.80;1.60;;;;;;;-2.07;100.00;99192.69;10480816;28;20474;-54
2022/01/20 23:53:43;;;;;;;6.97;1.40;;;;;;;-2.04;100.00;99191.69;10508371;28;20048;-56
2022/01/20 23:58:46;;;;;;;7.45;1.60;;;;;;;-2.13;100.00;99200.00;10503643;28;20048;-52
